Cleavesville, Missouri
Current Conditions -  °F | °C
As of 6:53 AM on Wednesday 22 Oct 2014 (Local Time) from KVIH Reporting Station
Clear Clear  
Wind Chill: 37°   Ceiling: Unl
Heat Index: 42°   Visibility: 10mi
Dew Point: 39°   Wind: 8mph
Humidity: 89%   Direction: 100°E
Pressure: 30.23"   Gusts: NA
Location:  38.3239°N, 91.6268°W
Report Text: KVIH 221153Z AUTO 10007KT 10SM CLR 06/04 A3023 RMK AO2 SLP238 T00560039 10094 20056 51016
Loading
Personal Weather Stations






























Interactive Weather Map
Tropical Storm Tracking
New forecast layout! Learn more

10-Day Weather Forecast

Advertisements
Track Severe Weather on mobile